sensor_id;sensor_type;location;lat;lon;timestamp;P1;durP1;ratioP1;P2;durP2;ratioP2
23266;SDS011;11802;53.160;8.214;2024-02-15T00:00:47;16.63;;;10.57;;
23266;SDS011;11802;53.160;8.214;2024-02-15T00:03:13;17.03;;;11.20;;
23266;SDS011;11802;53.160;8.214;2024-02-15T00:05:39;19.83;;;11.97;;
23266;SDS011;11802;53.160;8.214;2024-02-15T00:08:04;23.20;;;13.90;;
23266;SDS011;11802;53.160;8.214;2024-02-15T00:10:31;19.00;;;12.87;;
23266;SDS011;11802;53.160;8.214;2024-02-15T00:12:56;21.43;;;12.87;;
23266;SDS011;11802;53.160;8.214;2024-02-15T00:15:22;23.37;;;15.77;;
23266;SDS011;11802;53.160;8.214;2024-02-15T00:17:48;21.37;;;14.27;;
23266;SDS011;11802;53.160;8.214;2024-02-15T00:20:13;19.90;;;12.80;;
23266;SDS011;11802;53.160;8.214;2024-02-15T00:22:39;24.23;;;14.70;;
23266;SDS011;11802;53.160;8.214;2024-02-15T00:25:08;23.57;;;15.73;;
23266;SDS011;11802;53.160;8.214;2024-02-15T00:27:34;27.93;;;16.27;;
23266;SDS011;11802;53.160;8.214;2024-02-15T00:30:01;25.17;;;15.83;;
23266;SDS011;11802;53.160;8.214;2024-02-15T00:32:27;27.77;;;16.87;;
23266;SDS011;11802;53.160;8.214;2024-02-15T00:34:52;27.20;;;16.90;;
23266;SDS011;11802;53.160;8.214;2024-02-15T00:37:18;28.97;;;16.37;;
23266;SDS011;11802;53.160;8.214;2024-02-15T00:39:44;28.50;;;16.73;;
23266;SDS011;11802;53.160;8.214;2024-02-15T00:42:10;25.83;;;17.13;;
23266;SDS011;11802;53.160;8.214;2024-02-15T00:44:36;28.80;;;17.07;;
23266;SDS011;11802;53.160;8.214;2024-02-15T00:47:02;31.43;;;18.00;;
23266;SDS011;11802;53.160;8.214;2024-02-15T00:49:27;27.37;;;17.07;;
23266;SDS011;11802;53.160;8.214;2024-02-15T00:51:53;25.37;;;16.03;;
23266;SDS011;11802;53.160;8.214;2024-02-15T00:54:18;28.77;;;16.57;;
23266;SDS011;11802;53.160;8.214;2024-02-15T00:56:44;24.40;;;15.67;;
23266;SDS011;11802;53.160;8.214;2024-02-15T00:59:10;22.93;;;13.97;;
23266;SDS011;11802;53.160;8.214;2024-02-15T01:01:35;22.63;;;15.83;;
23266;SDS011;11802;53.160;8.214;2024-02-15T01:04:04;24.60;;;15.57;;
23266;SDS011;11802;53.160;8.214;2024-02-15T01:06:30;26.33;;;16.60;;
23266;SDS011;11802;53.160;8.214;2024-02-15T01:08:56;25.13;;;16.40;;
23266;SDS011;11802;53.160;8.214;2024-02-15T01:11:22;24.60;;;14.50;;
23266;SDS011;11802;53.160;8.214;2024-02-15T01:13:49;25.17;;;16.00;;
23266;SDS011;11802;53.160;8.214;2024-02-15T01:16:16;23.97;;;15.63;;
23266;SDS011;11802;53.160;8.214;2024-02-15T01:18:41;28.87;;;17.70;;
23266;SDS011;11802;53.160;8.214;2024-02-15T01:21:07;27.33;;;16.60;;
23266;SDS011;11802;53.160;8.214;2024-02-15T01:23:33;24.23;;;15.50;;
23266;SDS011;11802;53.160;8.214;2024-02-15T01:26:00;24.20;;;14.83;;
23266;SDS011;11802;53.160;8.214;2024-02-15T01:28:26;21.20;;;12.53;;
23266;SDS011;11802;53.160;8.214;2024-02-15T01:30:51;27.20;;;15.97;;
23266;SDS011;11802;53.160;8.214;2024-02-15T01:33:17;26.27;;;16.57;;
23266;SDS011;11802;53.160;8.214;2024-02-15T01:35:43;28.40;;;16.90;;
23266;SDS011;11802;53.160;8.214;2024-02-15T01:38:08;26.33;;;15.97;;
23266;SDS011;11802;53.160;8.214;2024-02-15T01:40:34;27.70;;;16.03;;
23266;SDS011;11802;53.160;8.214;2024-02-15T01:43:00;25.83;;;15.50;;
23266;SDS011;11802;53.160;8.214;2024-02-15T01:45:25;23.67;;;14.30;;
23266;SDS011;11802;53.160;8.214;2024-02-15T01:47:53;28.50;;;17.17;;
23266;SDS011;11802;53.160;8.214;2024-02-15T01:50:19;27.67;;;17.67;;
23266;SDS011;11802;53.160;8.214;2024-02-15T01:52:46;30.07;;;18.03;;
23266;SDS011;11802;53.160;8.214;2024-02-15T01:55:13;29.87;;;19.33;;
23266;SDS011;11802;53.160;8.214;2024-02-15T01:57:40;26.97;;;17.80;;
23266;SDS011;11802;53.160;8.214;2024-02-15T02:00:09;29.60;;;17.67;;
23266;SDS011;11802;53.160;8.214;2024-02-15T02:02:35;32.37;;;19.13;;
23266;SDS011;11802;53.160;8.214;2024-02-15T02:05:04;27.33;;;17.43;;
23266;SDS011;11802;53.160;8.214;2024-02-15T02:07:31;32.83;;;19.73;;
23266;SDS011;11802;53.160;8.214;2024-02-15T02:09:56;32.83;;;19.27;;
23266;SDS011;11802;53.160;8.214;2024-02-15T02:12:22;29.77;;;18.23;;
23266;SDS011;11802;53.160;8.214;2024-02-15T02:14:49;31.00;;;19.00;;
23266;SDS011;11802;53.160;8.214;2024-02-15T02:17:15;28.33;;;17.10;;
23266;SDS011;11802;53.160;8.214;2024-02-15T02:19:43;29.50;;;18.60;;
23266;SDS011;11802;53.160;8.214;2024-02-15T02:22:09;31.80;;;19.67;;
23266;SDS011;11802;53.160;8.214;2024-02-15T02:27:19;29.13;;;16.40;;
23266;SDS011;11802;53.160;8.214;2024-02-15T02:29:45;27.57;;;17.67;;
23266;SDS011;11802;53.160;8.214;2024-02-15T02:32:11;28.87;;;17.17;;
23266;SDS011;11802;53.160;8.214;2024-02-15T02:34:37;30.03;;;18.10;;
23266;SDS011;11802;53.160;8.214;2024-02-15T02:37:03;32.97;;;18.40;;
23266;SDS011;11802;53.160;8.214;2024-02-15T02:39:30;30.10;;;17.47;;
23266;SDS011;11802;53.160;8.214;2024-02-15T02:41:56;31.20;;;17.87;;
23266;SDS011;11802;53.160;8.214;2024-02-15T02:44:23;32.13;;;18.00;;
23266;SDS011;11802;53.160;8.214;2024-02-15T02:46:48;24.87;;;14.03;;
23266;SDS011;11802;53.160;8.214;2024-02-15T02:49:14;29.90;;;16.73;;
23266;SDS011;11802;53.160;8.214;2024-02-15T02:51:39;25.73;;;15.10;;
23266;SDS011;11802;53.160;8.214;2024-02-15T02:54:05;28.67;;;14.63;;
23266;SDS011;11802;53.160;8.214;2024-02-15T02:56:31;25.03;;;14.80;;
23266;SDS011;11802;53.160;8.214;2024-02-15T02:58:57;24.40;;;13.30;;
23266;SDS011;11802;53.160;8.214;2024-02-15T03:01:23;25.20;;;14.70;;
23266;SDS011;11802;53.160;8.214;2024-02-15T03:03:52;26.07;;;15.20;;
23266;SDS011;11802;53.160;8.214;2024-02-15T03:06:20;22.57;;;13.73;;
23266;SDS011;11802;53.160;8.214;2024-02-15T03:08:46;27.17;;;13.73;;
23266;SDS011;11802;53.160;8.214;2024-02-15T03:11:12;25.07;;;15.03;;
23266;SDS011;11802;53.160;8.214;2024-02-15T03:13:39;27.30;;;14.00;;
23266;SDS011;11802;53.160;8.214;2024-02-15T03:16:05;26.37;;;14.80;;
23266;SDS011;11802;53.160;8.214;2024-02-15T03:18:31;26.67;;;16.20;;
23266;SDS011;11802;53.160;8.214;2024-02-15T03:21:00;25.67;;;14.93;;
23266;SDS011;11802;53.160;8.214;2024-02-15T03:23:26;24.23;;;14.47;;
23266;SDS011;11802;53.160;8.214;2024-02-15T03:25:51;22.57;;;14.13;;
23266;SDS011;11802;53.160;8.214;2024-02-15T03:28:18;26.90;;;14.87;;
23266;SDS011;11802;53.160;8.214;2024-02-15T03:30:46;24.10;;;14.67;;
23266;SDS011;11802;53.160;8.214;2024-02-15T03:33:12;24.33;;;14.60;;
23266;SDS011;11802;53.160;8.214;2024-02-15T03:35:38;22.93;;;14.43;;
23266;SDS011;11802;53.160;8.214;2024-02-15T03:38:04;22.93;;;14.53;;
23266;SDS011;11802;53.160;8.214;2024-02-15T03:40:30;24.50;;;14.13;;
23266;SDS011;11802;53.160;8.214;2024-02-15T03:42:57;26.33;;;14.43;;
23266;SDS011;11802;53.160;8.214;2024-02-15T03:45:23;24.00;;;14.30;;
23266;SDS011;11802;53.160;8.214;2024-02-15T03:47:50;25.57;;;13.50;;
23266;SDS011;11802;53.160;8.214;2024-02-15T03:50:16;27.73;;;14.07;;
23266;SDS011;11802;53.160;8.214;2024-02-15T03:52:46;19.23;;;12.33;;
23266;SDS011;11802;53.160;8.214;2024-02-15T03:55:12;19.33;;;12.83;;
23266;SDS011;11802;53.160;8.214;2024-02-15T03:57:38;22.83;;;12.67;;
23266;SDS011;11802;53.160;8.214;2024-02-15T04:00:11;23.60;;;12.40;;
23266;SDS011;11802;53.160;8.214;2024-02-15T04:02:45;19.80;;;11.43;;
23266;SDS011;11802;53.160;8.214;2024-02-15T04:05:12;25.43;;;13.10;;
23266;SDS011;11802;53.160;8.214;2024-02-15T04:07:38;18.97;;;11.10;;
23266;SDS011;11802;53.160;8.214;2024-02-15T04:10:04;22.57;;;11.87;;
23266;SDS011;11802;53.160;8.214;2024-02-15T04:12:31;21.53;;;10.67;;
23266;SDS011;11802;53.160;8.214;2024-02-15T04:14:57;20.10;;;10.20;;
23266;SDS011;11802;53.160;8.214;2024-02-15T04:17:30;22.07;;;11.47;;
23266;SDS011;11802;53.160;8.214;2024-02-15T04:19:57;21.53;;;9.77;;
23266;SDS011;11802;53.160;8.214;2024-02-15T04:22:23;19.77;;;10.30;;
23266;SDS011;11802;53.160;8.214;2024-02-15T04:24:48;19.60;;;10.97;;
23266;SDS011;11802;53.160;8.214;2024-02-15T04:27:14;20.93;;;10.60;;
23266;SDS011;11802;53.160;8.214;2024-02-15T04:29:41;19.07;;;9.57;;
23266;SDS011;11802;53.160;8.214;2024-02-15T04:32:09;18.37;;;11.13;;
23266;SDS011;11802;53.160;8.214;2024-02-15T04:34:38;21.03;;;9.60;;
23266;SDS011;11802;53.160;8.214;2024-02-15T04:37:04;22.20;;;11.20;;
23266;SDS011;11802;53.160;8.214;2024-02-15T04:39:36;17.60;;;10.13;;
23266;SDS011;11802;53.160;8.214;2024-02-15T04:42:02;21.20;;;10.00;;
23266;SDS011;11802;53.160;8.214;2024-02-15T04:44:29;18.60;;;10.37;;
23266;SDS011;11802;53.160;8.214;2024-02-15T04:46:57;20.90;;;10.80;;
23266;SDS011;11802;53.160;8.214;2024-02-15T04:49:23;21.93;;;11.37;;
23266;SDS011;11802;53.160;8.214;2024-02-15T04:51:49;19.77;;;11.10;;
23266;SDS011;11802;53.160;8.214;2024-02-15T04:54:14;19.93;;;11.57;;
23266;SDS011;11802;53.160;8.214;2024-02-15T04:56:41;20.03;;;10.80;;
23266;SDS011;11802;53.160;8.214;2024-02-15T04:59:07;22.53;;;10.90;;
23266;SDS011;11802;53.160;8.214;2024-02-15T05:01:36;19.23;;;11.63;;
23266;SDS011;11802;53.160;8.214;2024-02-15T05:04:02;23.23;;;12.43;;
23266;SDS011;11802;53.160;8.214;2024-02-15T05:06:32;25.50;;;12.90;;
23266;SDS011;11802;53.160;8.214;2024-02-15T05:08:58;23.60;;;12.67;;
23266;SDS011;11802;53.160;8.214;2024-02-15T05:11:25;22.43;;;12.50;;
23266;SDS011;11802;53.160;8.214;2024-02-15T05:13:51;24.57;;;12.80;;
23266;SDS011;11802;53.160;8.214;2024-02-15T05:16:18;25.87;;;14.07;;
23266;SDS011;11802;53.160;8.214;2024-02-15T05:18:44;25.23;;;13.80;;
23266;SDS011;11802;53.160;8.214;2024-02-15T05:21:10;25.23;;;14.83;;
23266;SDS011;11802;53.160;8.214;2024-02-15T05:23:37;24.77;;;13.27;;
23266;SDS011;11802;53.160;8.214;2024-02-15T05:26:04;28.10;;;13.43;;
23266;SDS011;11802;53.160;8.214;2024-02-15T05:28:31;24.00;;;13.83;;
23266;SDS011;11802;53.160;8.214;2024-02-15T05:31:10;25.83;;;14.07;;
23266;SDS011;11802;53.160;8.214;2024-02-15T05:33:37;24.30;;;14.17;;
23266;SDS011;11802;53.160;8.214;2024-02-15T05:36:12;27.50;;;15.13;;
23266;SDS011;11802;53.160;8.214;2024-02-15T05:38:38;27.73;;;15.13;;
23266;SDS011;11802;53.160;8.214;2024-02-15T05:41:05;27.00;;;15.60;;
23266;SDS011;11802;53.160;8.214;2024-02-15T05:43:32;31.30;;;16.53;;
23266;SDS011;11802;53.160;8.214;2024-02-15T05:45:58;32.57;;;15.63;;
23266;SDS011;11802;53.160;8.214;2024-02-15T05:48:25;27.30;;;16.07;;
23266;SDS011;11802;53.160;8.214;2024-02-15T05:50:52;27.27;;;16.23;;
23266;SDS011;11802;53.160;8.214;2024-02-15T05:53:19;28.67;;;16.00;;
23266;SDS011;11802;53.160;8.214;2024-02-15T05:55:45;24.13;;;15.23;;
23266;SDS011;11802;53.160;8.214;2024-02-15T05:58:11;31.23;;;16.53;;
23266;SDS011;11802;53.160;8.214;2024-02-15T06:00:38;28.53;;;16.87;;
23266;SDS011;11802;53.160;8.214;2024-02-15T06:03:05;27.70;;;16.70;;
23266;SDS011;11802;53.160;8.214;2024-02-15T06:05:31;35.00;;;17.97;;
23266;SDS011;11802;53.160;8.214;2024-02-15T06:07:59;32.77;;;16.77;;
23266;SDS011;11802;53.160;8.214;2024-02-15T06:10:25;33.13;;;17.87;;
23266;SDS011;11802;53.160;8.214;2024-02-15T06:12:51;32.87;;;17.73;;
23266;SDS011;11802;53.160;8.214;2024-02-15T06:15:17;34.87;;;18.73;;
23266;SDS011;11802;53.160;8.214;2024-02-15T06:17:42;34.30;;;19.47;;
23266;SDS011;11802;53.160;8.214;2024-02-15T06:20:14;35.63;;;18.87;;
23266;SDS011;11802;53.160;8.214;2024-02-15T06:22:43;36.40;;;19.00;;
23266;SDS011;11802;53.160;8.214;2024-02-15T06:25:09;37.07;;;20.00;;
23266;SDS011;11802;53.160;8.214;2024-02-15T06:27:38;38.10;;;20.47;;
23266;SDS011;11802;53.160;8.214;2024-02-15T06:30:11;38.37;;;20.43;;
23266;SDS011;11802;53.160;8.214;2024-02-15T06:32:57;39.17;;;20.97;;
23266;SDS011;11802;53.160;8.214;2024-02-15T06:35:41;41.20;;;21.83;;
23266;SDS011;11802;53.160;8.214;2024-02-15T06:38:25;40.53;;;21.23;;
23266;SDS011;11802;53.160;8.214;2024-02-15T06:41:09;41.33;;;21.30;;
23266;SDS011;11802;53.160;8.214;2024-02-15T06:43:35;46.47;;;22.87;;
23266;SDS011;11802;53.160;8.214;2024-02-15T06:46:02;46.03;;;23.93;;
23266;SDS011;11802;53.160;8.214;2024-02-15T06:48:31;41.30;;;22.67;;
23266;SDS011;11802;53.160;8.214;2024-02-15T06:50:56;44.33;;;24.07;;
23266;SDS011;11802;53.160;8.214;2024-02-15T06:53:23;38.30;;;21.13;;
23266;SDS011;11802;53.160;8.214;2024-02-15T06:55:51;39.27;;;22.30;;
23266;SDS011;11802;53.160;8.214;2024-02-15T06:58:17;46.63;;;24.00;;
23266;SDS011;11802;53.160;8.214;2024-02-15T07:00:43;41.30;;;22.07;;
23266;SDS011;11802;53.160;8.214;2024-02-15T07:03:09;40.80;;;22.50;;
23266;SDS011;11802;53.160;8.214;2024-02-15T07:05:36;43.63;;;23.93;;
23266;SDS011;11802;53.160;8.214;2024-02-15T07:08:03;47.17;;;24.20;;
23266;SDS011;11802;53.160;8.214;2024-02-15T07:10:30;37.80;;;21.10;;
23266;SDS011;11802;53.160;8.214;2024-02-15T07:12:56;38.40;;;21.57;;
23266;SDS011;11802;53.160;8.214;2024-02-15T07:15:22;43.97;;;23.50;;
23266;SDS011;11802;53.160;8.214;2024-02-15T07:17:48;38.30;;;23.00;;
23266;SDS011;11802;53.160;8.214;2024-02-15T07:20:13;39.50;;;22.23;;
23266;SDS011;11802;53.160;8.214;2024-02-15T07:22:42;41.63;;;23.83;;
23266;SDS011;11802;53.160;8.214;2024-02-15T07:25:10;40.83;;;23.63;;
23266;SDS011;11802;53.160;8.214;2024-02-15T07:27:36;41.63;;;23.80;;
23266;SDS011;11802;53.160;8.214;2024-02-15T07:30:02;41.50;;;22.27;;
23266;SDS011;11802;53.160;8.214;2024-02-15T07:32:29;34.77;;;20.50;;
23266;SDS011;11802;53.160;8.214;2024-02-15T07:34:56;37.07;;;20.67;;
23266;SDS011;11802;53.160;8.214;2024-02-15T07:37:22;38.37;;;22.30;;
23266;SDS011;11802;53.160;8.214;2024-02-15T07:39:51;41.83;;;22.13;;
23266;SDS011;11802;53.160;8.214;2024-02-15T07:42:17;38.67;;;21.93;;
23266;SDS011;11802;53.160;8.214;2024-02-15T07:44:42;35.13;;;21.13;;
23266;SDS011;11802;53.160;8.214;2024-02-15T07:47:08;35.20;;;20.03;;
23266;SDS011;11802;53.160;8.214;2024-02-15T07:49:35;35.80;;;21.90;;
23266;SDS011;11802;53.160;8.214;2024-02-15T07:52:01;38.20;;;21.87;;
23266;SDS011;11802;53.160;8.214;2024-02-15T07:54:30;34.23;;;22.37;;
23266;SDS011;11802;53.160;8.214;2024-02-15T07:56:58;37.67;;;20.53;;
23266;SDS011;11802;53.160;8.214;2024-02-15T07:59:24;32.40;;;19.07;;
23266;SDS011;11802;53.160;8.214;2024-02-15T08:01:49;37.60;;;21.07;;
23266;SDS011;11802;53.160;8.214;2024-02-15T08:04:15;34.17;;;22.13;;
23266;SDS011;11802;53.160;8.214;2024-02-15T08:06:42;36.53;;;21.57;;
23266;SDS011;11802;53.160;8.214;2024-02-15T08:09:08;36.80;;;21.77;;
23266;SDS011;11802;53.160;8.214;2024-02-15T08:11:38;31.43;;;19.37;;
23266;SDS011;11802;53.160;8.214;2024-02-15T08:14:05;43.43;;;22.33;;
23266;SDS011;11802;53.160;8.214;2024-02-15T08:16:33;35.67;;;20.77;;
23266;SDS011;11802;53.160;8.214;2024-02-15T08:18:59;34.73;;;20.13;;
23266;SDS011;11802;53.160;8.214;2024-02-15T08:21:26;31.20;;;19.20;;
23266;SDS011;11802;53.160;8.214;2024-02-15T08:23:54;33.53;;;18.77;;
23266;SDS011;11802;53.160;8.214;2024-02-15T08:26:20;34.60;;;20.40;;
23266;SDS011;11802;53.160;8.214;2024-02-15T08:28:46;31.70;;;18.57;;
23266;SDS011;11802;53.160;8.214;2024-02-15T08:31:36;30.90;;;19.67;;
23266;SDS011;11802;53.160;8.214;2024-02-15T08:34:29;30.83;;;19.17;;
23266;SDS011;11802;53.160;8.214;2024-02-15T08:36:55;30.37;;;19.60;;
23266;SDS011;11802;53.160;8.214;2024-02-15T08:39:23;34.23;;;18.83;;
23266;SDS011;11802;53.160;8.214;2024-02-15T08:41:50;31.47;;;18.50;;
23266;SDS011;11802;53.160;8.214;2024-02-15T08:44:16;32.40;;;19.17;;
23266;SDS011;11802;53.160;8.214;2024-02-15T08:46:44;28.37;;;16.87;;
23266;SDS011;11802;53.160;8.214;2024-02-15T08:49:09;36.37;;;21.13;;
23266;SDS011;11802;53.160;8.214;2024-02-15T08:51:38;32.00;;;19.47;;
23266;SDS011;11802;53.160;8.214;2024-02-15T08:54:04;31.87;;;18.63;;
23266;SDS011;11802;53.160;8.214;2024-02-15T08:56:30;28.20;;;18.23;;
23266;SDS011;11802;53.160;8.214;2024-02-15T08:58:55;32.00;;;17.90;;
23266;SDS011;11802;53.160;8.214;2024-02-15T09:01:22;34.07;;;17.10;;
23266;SDS011;11802;53.160;8.214;2024-02-15T09:03:49;27.83;;;19.10;;
23266;SDS011;11802;53.160;8.214;2024-02-15T09:06:14;31.37;;;18.27;;
23266;SDS011;11802;53.160;8.214;2024-02-15T09:08:40;28.93;;;18.03;;
23266;SDS011;11802;53.160;8.214;2024-02-15T09:11:05;28.47;;;17.23;;
23266;SDS011;11802;53.160;8.214;2024-02-15T09:13:31;36.07;;;18.63;;
23266;SDS011;11802;53.160;8.214;2024-02-15T09:15:58;29.07;;;17.80;;
23266;SDS011;11802;53.160;8.214;2024-02-15T09:18:24;31.03;;;18.60;;
23266;SDS011;11802;53.160;8.214;2024-02-15T09:20:49;29.63;;;18.73;;
23266;SDS011;11802;53.160;8.214;2024-02-15T09:23:20;26.70;;;18.43;;
23266;SDS011;11802;53.160;8.214;2024-02-15T09:25:48;33.43;;;18.17;;
23266;SDS011;11802;53.160;8.214;2024-02-15T09:28:16;29.43;;;18.03;;
23266;SDS011;11802;53.160;8.214;2024-02-15T09:30:46;26.40;;;18.30;;
23266;SDS011;11802;53.160;8.214;2024-02-15T09:33:13;30.63;;;17.23;;
23266;SDS011;11802;53.160;8.214;2024-02-15T09:35:38;28.90;;;19.47;;
23266;SDS011;11802;53.160;8.214;2024-02-15T09:38:04;28.80;;;18.80;;
23266;SDS011;11802;53.160;8.214;2024-02-15T09:40:31;34.17;;;20.67;;
23266;SDS011;11802;53.160;8.214;2024-02-15T09:42:56;30.13;;;19.43;;
23266;SDS011;11802;53.160;8.214;2024-02-15T09:45:22;33.60;;;19.57;;
23266;SDS011;11802;53.160;8.214;2024-02-15T09:47:50;30.73;;;19.80;;
23266;SDS011;11802;53.160;8.214;2024-02-15T09:50:17;35.37;;;21.57;;
23266;SDS011;11802;53.160;8.214;2024-02-15T09:52:44;34.20;;;20.80;;
23266;SDS011;11802;53.160;8.214;2024-02-15T09:55:11;35.73;;;20.67;;
23266;SDS011;11802;53.160;8.214;2024-02-15T09:57:45;42.00;;;23.90;;
23266;SDS011;11802;53.160;8.214;2024-02-15T10:00:11;35.30;;;23.47;;
23266;SDS011;11802;53.160;8.214;2024-02-15T10:02:41;34.93;;;23.10;;
23266;SDS011;11802;53.160;8.214;2024-02-15T10:05:12;38.53;;;23.47;;
23266;SDS011;11802;53.160;8.214;2024-02-15T10:07:38;37.57;;;24.87;;
23266;SDS011;11802;53.160;8.214;2024-02-15T10:10:14;31.93;;;22.93;;
23266;SDS011;11802;53.160;8.214;2024-02-15T10:12:47;38.50;;;24.03;;
23266;SDS011;11802;53.160;8.214;2024-02-15T10:25:37;35.97;;;26.10;;
23266;SDS011;11802;53.160;8.214;2024-02-15T10:28:10;45.43;;;29.13;;
23266;SDS011;11802;53.160;8.214;2024-02-15T10:30:39;36.27;;;24.07;;
23266;SDS011;11802;53.160;8.214;2024-02-15T10:33:10;35.47;;;24.80;;
23266;SDS011;11802;53.160;8.214;2024-02-15T10:35:50;31.20;;;23.00;;
23266;SDS011;11802;53.160;8.214;2024-02-15T10:38:33;33.47;;;24.27;;
23266;SDS011;11802;53.160;8.214;2024-02-15T10:41:02;32.20;;;22.67;;
23266;SDS011;11802;53.160;8.214;2024-02-15T10:43:32;33.10;;;22.63;;
23266;SDS011;11802;53.160;8.214;2024-02-15T10:52:35;38.30;;;23.20;;
23266;SDS011;11802;53.160;8.214;2024-02-15T11:05:16;34.27;;;21.70;;
23266;SDS011;11802;53.160;8.214;2024-02-15T11:07:47;36.43;;;22.93;;
23266;SDS011;11802;53.160;8.214;2024-02-15T11:19:53;32.00;;;22.40;;
23266;SDS011;11802;53.160;8.214;2024-02-15T11:22:18;35.70;;;21.87;;
23266;SDS011;11802;53.160;8.214;2024-02-15T11:24:48;32.53;;;21.23;;
23266;SDS011;11802;53.160;8.214;2024-02-15T11:27:23;27.63;;;19.77;;
23266;SDS011;11802;53.160;8.214;2024-02-15T11:29:56;26.90;;;18.13;;
23266;SDS011;11802;53.160;8.214;2024-02-15T11:32:39;27.83;;;19.60;;
23266;SDS011;11802;53.160;8.214;2024-02-15T11:45:17;23.27;;;16.17;;
23266;SDS011;11802;53.160;8.214;2024-02-15T11:47:43;21.83;;;15.73;;
23266;SDS011;11802;53.160;8.214;2024-02-15T11:50:14;19.93;;;14.23;;
23266;SDS011;11802;53.160;8.214;2024-02-15T11:52:42;19.27;;;14.40;;
23266;SDS011;11802;53.160;8.214;2024-02-15T11:55:19;23.67;;;14.07;;
23266;SDS011;11802;53.160;8.214;2024-02-15T11:57:58;20.77;;;15.20;;
23266;SDS011;11802;53.160;8.214;2024-02-15T12:00:30;18.03;;;13.83;;
23266;SDS011;11802;53.160;8.214;2024-02-15T12:03:15;19.67;;;14.90;;
23266;SDS011;11802;53.160;8.214;2024-02-15T12:06:00;16.67;;;13.07;;
23266;SDS011;11802;53.160;8.214;2024-02-15T12:08:46;17.67;;;13.57;;
23266;SDS011;11802;53.160;8.214;2024-02-15T12:14:59;18.00;;;13.13;;
23266;SDS011;11802;53.160;8.214;2024-02-15T12:18:30;13.13;;;10.40;;
23266;SDS011;11802;53.160;8.214;2024-02-15T12:20:58;17.23;;;12.43;;
23266;SDS011;11802;53.160;8.214;2024-02-15T12:26:47;19.03;;;12.13;;
23266;SDS011;11802;53.160;8.214;2024-02-15T12:29:17;17.03;;;12.60;;
23266;SDS011;11802;53.160;8.214;2024-02-15T12:31:43;14.87;;;11.27;;
23266;SDS011;11802;53.160;8.214;2024-02-15T12:34:09;18.43;;;11.83;;
23266;SDS011;11802;53.160;8.214;2024-02-15T12:36:35;17.10;;;12.53;;
23266;SDS011;11802;53.160;8.214;2024-02-15T12:39:03;18.43;;;11.47;;
23266;SDS011;11802;53.160;8.214;2024-02-15T12:41:46;14.37;;;11.03;;
23266;SDS011;11802;53.160;8.214;2024-02-15T12:44:18;16.40;;;11.80;;
23266;SDS011;11802;53.160;8.214;2024-02-15T12:46:49;15.70;;;11.80;;
23266;SDS011;11802;53.160;8.214;2024-02-15T12:51:52;17.77;;;11.63;;
23266;SDS011;11802;53.160;8.214;2024-02-15T12:54:20;15.63;;;11.97;;
23266;SDS011;11802;53.160;8.214;2024-02-15T12:56:46;18.00;;;12.33;;
23266;SDS011;11802;53.160;8.214;2024-02-15T12:59:17;14.50;;;11.20;;
23266;SDS011;11802;53.160;8.214;2024-02-15T13:01:44;12.50;;;10.73;;
23266;SDS011;11802;53.160;8.214;2024-02-15T13:04:20;13.73;;;10.73;;
23266;SDS011;11802;53.160;8.214;2024-02-15T13:06:53;12.70;;;9.80;;
23266;SDS011;11802;53.160;8.214;2024-02-15T13:09:19;14.50;;;10.33;;
23266;SDS011;11802;53.160;8.214;2024-02-15T13:11:47;16.73;;;10.90;;
23266;SDS011;11802;53.160;8.214;2024-02-15T13:14:15;12.80;;;9.73;;
23266;SDS011;11802;53.160;8.214;2024-02-15T13:16:40;13.40;;;9.53;;
23266;SDS011;11802;53.160;8.214;2024-02-15T13:19:08;11.73;;;9.30;;
23266;SDS011;11802;53.160;8.214;2024-02-15T13:21:33;11.27;;;8.97;;
23266;SDS011;11802;53.160;8.214;2024-02-15T13:23:59;12.17;;;9.10;;
23266;SDS011;11802;53.160;8.214;2024-02-15T13:26:30;11.40;;;9.33;;
23266;SDS011;11802;53.160;8.214;2024-02-15T13:28:56;8.60;;;7.20;;
23266;SDS011;11802;53.160;8.214;2024-02-15T13:31:21;9.13;;;6.93;;
23266;SDS011;11802;53.160;8.214;2024-02-15T13:33:47;11.20;;;7.80;;
23266;SDS011;11802;53.160;8.214;2024-02-15T13:36:13;9.33;;;7.13;;
23266;SDS011;11802;53.160;8.214;2024-02-15T13:38:40;8.50;;;6.90;;
23266;SDS011;11802;53.160;8.214;2024-02-15T13:41:07;7.97;;;7.17;;
23266;SDS011;11802;53.160;8.214;2024-02-15T13:43:33;10.90;;;7.33;;
23266;SDS011;11802;53.160;8.214;2024-02-15T13:45:59;9.77;;;7.53;;
23266;SDS011;11802;53.160;8.214;2024-02-15T13:48:29;10.33;;;7.00;;
23266;SDS011;11802;53.160;8.214;2024-02-15T13:54:31;9.63;;;7.40;;
23266;SDS011;11802;53.160;8.214;2024-02-15T13:57:07;8.80;;;7.07;;
23266;SDS011;11802;53.160;8.214;2024-02-15T13:59:42;8.47;;;6.90;;
23266;SDS011;11802;53.160;8.214;2024-02-15T14:02:19;10.80;;;6.97;;
23266;SDS011;11802;53.160;8.214;2024-02-15T14:04:44;9.20;;;7.20;;
23266;SDS011;11802;53.160;8.214;2024-02-15T14:07:10;9.27;;;6.70;;
23266;SDS011;11802;53.160;8.214;2024-02-15T14:09:36;9.13;;;7.60;;
23266;SDS011;11802;53.160;8.214;2024-02-15T14:12:01;8.63;;;6.90;;
23266;SDS011;11802;53.160;8.214;2024-02-15T14:14:30;11.43;;;6.40;;
23266;SDS011;11802;53.160;8.214;2024-02-15T14:16:56;10.52;;;5.90;;
23266;SDS011;11802;53.160;8.214;2024-02-15T14:19:22;9.33;;;6.53;;
23266;SDS011;11802;53.160;8.214;2024-02-15T14:21:51;8.10;;;6.40;;
23266;SDS011;11802;53.160;8.214;2024-02-15T14:24:19;10.13;;;6.60;;
23266;SDS011;11802;53.160;8.214;2024-02-15T14:26:47;13.27;;;6.27;;
23266;SDS011;11802;53.160;8.214;2024-02-15T14:29:13;9.43;;;6.77;;
23266;SDS011;11802;53.160;8.214;2024-02-15T14:31:39;8.67;;;7.10;;
23266;SDS011;11802;53.160;8.214;2024-02-15T14:34:23;7.97;;;6.77;;
23266;SDS011;11802;53.160;8.214;2024-02-15T14:36:50;10.03;;;6.80;;
23266;SDS011;11802;53.160;8.214;2024-02-15T14:39:16;7.07;;;6.37;;
23266;SDS011;11802;53.160;8.214;2024-02-15T14:41:42;10.70;;;7.27;;
23266;SDS011;11802;53.160;8.214;2024-02-15T14:44:08;9.17;;;7.37;;
23266;SDS011;11802;53.160;8.214;2024-02-15T14:46:35;8.82;;;6.65;;
23266;SDS011;11802;53.160;8.214;2024-02-15T14:49:01;9.33;;;7.87;;
23266;SDS011;11802;53.160;8.214;2024-02-15T14:51:27;8.10;;;7.10;;
23266;SDS011;11802;53.160;8.214;2024-02-15T14:53:53;10.93;;;7.50;;
23266;SDS011;11802;53.160;8.214;2024-02-15T14:56:19;12.03;;;7.77;;
23266;SDS011;11802;53.160;8.214;2024-02-15T14:58:44;8.93;;;7.27;;
23266;SDS011;11802;53.160;8.214;2024-02-15T15:01:10;8.97;;;7.77;;
23266;SDS011;11802;53.160;8.214;2024-02-15T15:03:38;10.50;;;7.63;;
23266;SDS011;11802;53.160;8.214;2024-02-15T15:06:04;9.00;;;7.60;;
23266;SDS011;11802;53.160;8.214;2024-02-15T15:08:48;8.63;;;7.73;;
23266;SDS011;11802;53.160;8.214;2024-02-15T15:11:32;8.83;;;7.43;;
23266;SDS011;11802;53.160;8.214;2024-02-15T15:14:16;12.27;;;9.10;;
23266;SDS011;11802;53.160;8.214;2024-02-15T15:16:42;10.50;;;9.00;;
23266;SDS011;11802;53.160;8.214;2024-02-15T15:19:08;10.33;;;8.17;;
23266;SDS011;11802;53.160;8.214;2024-02-15T15:21:35;10.97;;;9.23;;
23266;SDS011;11802;53.160;8.214;2024-02-15T15:24:00;14.30;;;9.40;;
23266;SDS011;11802;53.160;8.214;2024-02-15T15:26:26;12.07;;;9.40;;
23266;SDS011;11802;53.160;8.214;2024-02-15T15:28:51;14.13;;;9.87;;
23266;SDS011;11802;53.160;8.214;2024-02-15T15:31:19;15.33;;;9.60;;
23266;SDS011;11802;53.160;8.214;2024-02-15T15:33:44;11.50;;;9.30;;